createdAt,value
2022-10-03T00:01:43.215Z,992
2022-10-03T00:03:43.836Z,992.1
2022-10-03T00:05:45.769Z,992.1
2022-10-03T00:07:46.870Z,992.2
2022-10-03T00:09:47.849Z,992.1
2022-10-03T00:11:49.042Z,992.2
2022-10-03T00:13:50.054Z,992.2
2022-10-03T00:15:52.017Z,992.2
2022-10-03T00:17:53.722Z,992.2
2022-10-03T00:19:55.498Z,992.1
2022-10-03T00:21:56.693Z,992.2
2022-10-03T00:23:58.085Z,992.2
2022-10-03T00:25:59.815Z,992.2
2022-10-03T00:28:01.075Z,992.2
2022-10-03T00:30:02.751Z,992.2
2022-10-03T00:32:04.615Z,992.4
2022-10-03T00:34:06.364Z,992.4
2022-10-03T00:36:07.699Z,992.4
2022-10-03T00:38:09.203Z,992.3
2022-10-03T00:42:11.927Z,992.3
2022-10-03T00:44:13.607Z,992.4
2022-10-03T00:46:15.548Z,992.4
2022-10-03T00:48:17.097Z,992.3
2022-10-03T00:50:18.249Z,992.4
2022-10-03T00:52:19.875Z,992.4
2022-10-03T00:54:21.696Z,992.4
2022-10-03T00:56:23.627Z,992.4
2022-10-03T00:58:25.115Z,992.4
2022-10-03T01:00:27.041Z,992.4
2022-10-03T01:02:28.806Z,992.4
2022-10-03T01:04:30.579Z,992.4
2022-10-03T01:06:31.990Z,992.5
2022-10-03T01:08:33.526Z,992.5
2022-10-03T01:10:34.510Z,992.5
2022-10-03T01:12:36.266Z,992.5
2022-10-03T01:14:37.605Z,992.5
2022-10-03T01:16:39.365Z,992.5
2022-10-03T01:18:40.902Z,992.5
2022-10-03T01:20:42.778Z,992.5
2022-10-03T01:24:45.937Z,992.6
2022-10-03T01:26:47.458Z,992.5
2022-10-03T01:28:48.690Z,992.5
2022-10-03T01:30:49.633Z,992.5
2022-10-03T01:32:50.957Z,992.4
2022-10-03T01:34:52.098Z,992.5
2022-10-03T01:36:53.271Z,992.5
2022-10-03T01:40:55.470Z,992.5
2022-10-03T01:42:56.474Z,992.4
2022-10-03T01:44:58.355Z,992.5
2022-10-03T01:46:59.653Z,992.5
2022-10-03T01:49:01.059Z,992.6
2022-10-03T01:51:02.346Z,992.6
2022-10-03T01:53:11.815Z,992.6
2022-10-03T01:55:04.933Z,992.6
2022-10-03T01:57:06.520Z,992.6
2022-10-03T01:59:07.804Z,992.6
2022-10-03T02:01:09.158Z,992.6
2022-10-03T02:03:10.996Z,992.7
2022-10-03T02:05:12.267Z,992.7
2022-10-03T02:07:13.289Z,992.8
2022-10-03T02:09:14.905Z,992.8
2022-10-03T02:11:16.303Z,992.8
2022-10-03T02:13:17.463Z,992.8
2022-10-03T02:15:18.481Z,992.8
2022-10-03T02:17:20.160Z,992.8
2022-10-03T02:19:21.188Z,992.8
2022-10-03T02:21:22.162Z,992.9
2022-10-03T02:23:23.869Z,992.9
2022-10-03T02:25:25.621Z,992.9
2022-10-03T02:27:27.041Z,992.9
2022-10-03T02:29:28.589Z,993
2022-10-03T02:31:30.219Z,992.9
2022-10-03T02:33:32.001Z,992.9
2022-10-03T02:35:33.866Z,992.8
2022-10-03T02:37:35.255Z,992.9
2022-10-03T02:39:36.678Z,992.9
2022-10-03T02:41:37.903Z,992.9
2022-10-03T02:43:39.644Z,992.9
2022-10-03T02:45:40.649Z,993
2022-10-03T02:47:42.233Z,993.1
2022-10-03T02:49:44.020Z,993.1
2022-10-03T02:51:45.161Z,993.1
2022-10-03T02:53:46.136Z,993.1
2022-10-03T02:55:47.376Z,993.1
2022-10-03T02:57:48.709Z,993.1
2022-10-03T02:59:50.169Z,993.2
2022-10-03T03:00:33.986Z,993.1
2022-10-03T03:02:35.361Z,993.1
2022-10-03T03:04:36.249Z,993.2
2022-10-03T03:06:37.413Z,993.2
2022-10-03T03:08:38.878Z,993.1
2022-10-03T03:10:40.573Z,993.2
2022-10-03T03:12:42.207Z,993.2
2022-10-03T03:14:44.018Z,993.2
2022-10-03T03:16:45.133Z,993.2
2022-10-03T03:18:47.006Z,993.3
2022-10-03T03:20:48.060Z,993.2
2022-10-03T03:22:49.095Z,993.2
2022-10-03T03:24:50.145Z,993.2
2022-10-03T03:26:51.703Z,993.2
2022-10-03T03:28:55.650Z,993.2
2022-10-03T03:30:54.347Z,993.2
2022-10-03T03:32:55.849Z,993.3
2022-10-03T03:34:57.135Z,993.2
2022-10-03T03:36:58.632Z,993.2
2022-10-03T03:39:00.364Z,993.2
2022-10-03T03:41:02.252Z,993.3
2022-10-03T03:43:03.235Z,993.2
2022-10-03T03:45:05.149Z,993.3
2022-10-03T03:47:06.671Z,993.3
2022-10-03T03:49:07.865Z,993.3
2022-10-03T03:51:09.456Z,993.3
2022-10-03T03:53:10.939Z,993.3
2022-10-03T03:55:12.532Z,993.3
2022-10-03T03:57:13.882Z,993.3
2022-10-03T03:59:14.920Z,993.3
2022-10-03T04:01:15.925Z,993.3
2022-10-03T04:03:17.243Z,993.3
2022-10-03T04:05:18.344Z,993.4
2022-10-03T04:07:21.738Z,993.4
2022-10-03T04:09:21.102Z,993.4
2022-10-03T04:11:22.739Z,993.5
2022-10-03T04:13:23.898Z,993.4
2022-10-03T04:15:25.665Z,993.4
2022-10-03T04:17:26.855Z,993.4
2022-10-03T04:19:28.004Z,993.4
2022-10-03T04:21:29.665Z,993.5
2022-10-03T04:25:32.534Z,993.5
2022-10-03T04:27:33.582Z,993.4
2022-10-03T04:29:34.886Z,993.5
2022-10-03T04:31:35.932Z,993.5
2022-10-03T04:35:39.113Z,993.4
2022-10-03T04:37:40.080Z,993.5
2022-10-03T04:41:43.293Z,993.4
2022-10-03T04:43:44.242Z,993.4
2022-10-03T04:45:45.868Z,993.4
2022-10-03T04:47:47.540Z,993.5
2022-10-03T04:49:48.761Z,993.5
2022-10-03T04:51:54.667Z,993.5
2022-10-03T04:53:51.647Z,993.5
2022-10-03T04:55:53.095Z,993.5
2022-10-03T04:57:54.171Z,993.5
2022-10-03T04:59:55.454Z,993.5
2022-10-03T05:01:57.129Z,993.5
2022-10-03T05:03:58.213Z,993.5
2022-10-03T05:06:00.016Z,993.6
2022-10-03T05:08:01.085Z,993.6
2022-10-03T05:10:05.978Z,993.6
2022-10-03T05:12:03.925Z,993.6
2022-10-03T05:14:05.494Z,993.6
2022-10-03T05:16:06.654Z,993.6
2022-10-03T05:18:07.726Z,993.6
2022-10-03T05:20:09.184Z,993.7
2022-10-03T05:22:10.984Z,993.8
2022-10-03T05:24:12.287Z,993.7
2022-10-03T05:26:32.608Z,993.7
2022-10-03T05:28:15.845Z,993.8
2022-10-03T05:30:16.768Z,993.8
2022-10-03T05:32:18.357Z,993.7
2022-10-03T05:34:19.612Z,993.8
2022-10-03T05:36:21.266Z,993.9
2022-10-03T05:40:24.095Z,993.9
2022-10-03T05:42:25.546Z,993.9
2022-10-03T05:44:27.365Z,993.9
2022-10-03T05:46:28.679Z,993.9
2022-10-03T05:48:30.263Z,994
2022-10-03T05:50:32.146Z,993.9
2022-10-03T05:52:33.144Z,993.9
2022-10-03T05:54:34.410Z,994
2022-10-03T05:56:40.229Z,994
2022-10-03T05:58:37.770Z,994.1
2022-10-03T06:00:39.654Z,994.1
2022-10-03T06:02:40.995Z,994.1
2022-10-03T06:06:43.224Z,994.2
2022-10-03T06:08:44.798Z,994.2
2022-10-03T06:10:46.195Z,994.1
2022-10-03T06:12:47.611Z,994.2
2022-10-03T06:16:50.524Z,994.1
2022-10-03T06:18:52.001Z,994.2
2022-10-03T06:20:53.111Z,994.3
2022-10-03T06:22:54.312Z,994.3
2022-10-03T06:24:56.123Z,994.3
2022-10-03T06:26:57.343Z,994.4
2022-10-03T06:28:59.154Z,994.4
2022-10-03T06:31:00.290Z,994.4
2022-10-03T06:33:02.047Z,994.4
2022-10-03T06:35:03.322Z,994.4
2022-10-03T06:37:05.134Z,994.4
2022-10-03T06:39:06.865Z,994.5
2022-10-03T06:41:08.055Z,994.5
2022-10-03T06:43:09.459Z,994.4
2022-10-03T06:45:11.319Z,994.5
2022-10-03T06:47:12.772Z,994.5
2022-10-03T06:49:14.695Z,994.4
2022-10-03T06:51:15.873Z,994.5
2022-10-03T06:53:17.740Z,994.4
2022-10-03T06:55:19.381Z,994.4
2022-10-03T06:59:22.149Z,994.4
2022-10-03T07:01:23.896Z,994.5
2022-10-03T07:05:26.493Z,994.4
2022-10-03T07:07:27.657Z,994.4
2022-10-03T07:09:28.751Z,994.5
2022-10-03T07:11:29.863Z,994.6
2022-10-03T07:13:30.901Z,994.5
2022-10-03T07:15:51.044Z,994.6
2022-10-03T07:17:33.338Z,994.6
2022-10-03T07:19:34.792Z,994.5
2022-10-03T07:21:36.865Z,994.6
2022-10-03T07:23:38.060Z,994.4
2022-10-03T07:25:39.036Z,994.6
2022-10-03T07:27:39.958Z,994.6
2022-10-03T07:29:41.657Z,994.6
2022-10-03T07:31:43.924Z,994.5
2022-10-03T07:33:44.973Z,994.6
2022-10-03T07:35:46.593Z,994.4
2022-10-03T07:37:47.758Z,994.6
2022-10-03T07:39:49.269Z,994.6
2022-10-03T07:47:54.654Z,994.6
2022-10-03T07:49:55.701Z,994.6
2022-10-03T07:51:56.877Z,994.7
2022-10-03T07:53:58.408Z,994.8
2022-10-03T07:55:59.559Z,994.8
2022-10-03T07:58:01.597Z,994.8
2022-10-03T08:00:02.829Z,994.8
2022-10-03T08:04:05.951Z,994.8
2022-10-03T08:06:07.682Z,994.7
2022-10-03T08:08:09.470Z,994.8
2022-10-03T08:10:10.753Z,994.8
2022-10-03T08:12:12.432Z,994.8
2022-10-03T08:14:13.260Z,994.9
2022-10-03T08:16:14.263Z,994.8
2022-10-03T08:18:15.407Z,994.8
2022-10-03T08:20:16.850Z,994.8
2022-10-03T08:22:18.299Z,994.9
2022-10-03T08:24:19.531Z,994.9
2022-10-03T08:26:20.798Z,994.9
2022-10-03T08:28:22.394Z,994.9
2022-10-03T08:30:23.487Z,994.9
2022-10-03T08:32:24.657Z,994.9
2022-10-03T08:34:26.030Z,994.9
2022-10-03T08:36:27.375Z,994.9
2022-10-03T08:38:29.043Z,994.8
2022-10-03T08:42:32.277Z,994.9
2022-10-03T08:44:33.241Z,994.9
2022-10-03T08:46:34.833Z,994.9
2022-10-03T08:48:36.381Z,994.9
2022-10-03T08:50:37.425Z,994.9
2022-10-03T08:52:39.152Z,994.9
2022-10-03T08:54:40.785Z,994.9
2022-10-03T08:56:42.256Z,994.9
2022-10-03T08:58:43.096Z,994.9
2022-10-03T09:00:43.911Z,994.8
2022-10-03T09:02:46.217Z,994.9
2022-10-03T09:04:47.277Z,994.8
2022-10-03T09:07:12.540Z,994.8
2022-10-03T09:08:50.129Z,994.9
2022-10-03T09:10:51.335Z,994.8
2022-10-03T09:12:52.945Z,994.9
2022-10-03T09:14:53.885Z,994.8
2022-10-03T09:16:55.297Z,994.8
2022-10-03T09:18:56.769Z,994.7
2022-10-03T09:20:58.212Z,994.9
2022-10-03T09:22:59.081Z,994.9
2022-10-03T09:25:00.302Z,994.9
2022-10-03T09:27:01.807Z,994.9
2022-10-03T09:29:03.301Z,994.8
2022-10-03T09:31:05.179Z,994.9
2022-10-03T09:33:05.915Z,994.8
2022-10-03T09:35:07.563Z,994.9
2022-10-03T09:37:09.090Z,994.8
2022-10-03T09:39:09.974Z,994.9
2022-10-03T09:41:11.694Z,994.9
2022-10-03T09:43:12.518Z,994.9
2022-10-03T09:45:13.300Z,994.9
2022-10-03T09:45:57.000Z,994.8
2022-10-03T09:47:57.827Z,994.8
2022-10-03T09:49:59.218Z,994.9
2022-10-03T09:52:00.449Z,994.8
2022-10-03T09:54:01.756Z,994.8
2022-10-03T09:56:02.681Z,994.7
2022-10-03T09:58:04.335Z,994.8
2022-10-03T10:00:05.452Z,994.8
2022-10-03T10:02:06.388Z,994.9
2022-10-03T10:04:08.348Z,994.9
2022-10-03T10:06:09.897Z,994.9
2022-10-03T10:08:10.772Z,994.9
2022-10-03T10:10:12.459Z,994.8
2022-10-03T10:12:13.775Z,994.9
2022-10-03T10:14:15.126Z,994.8
2022-10-03T10:16:15.970Z,994.9
2022-10-03T10:18:16.955Z,994.8
2022-10-03T10:20:17.967Z,994.9
2022-10-03T10:22:18.950Z,994.8
2022-10-03T10:24:20.695Z,994.9
2022-10-03T10:26:24.339Z,994.8
2022-10-03T10:28:23.763Z,994.8
2022-10-03T10:30:25.316Z,994.8
2022-10-03T10:32:26.948Z,994.9
2022-10-03T10:34:28.449Z,994.8
2022-10-03T10:36:29.819Z,994.8
2022-10-03T10:38:31.026Z,994.9
2022-10-03T10:40:32.100Z,994.9
2022-10-03T10:42:33.073Z,994.9
2022-10-03T10:44:34.430Z,995
2022-10-03T10:46:36.015Z,995
2022-10-03T10:48:36.849Z,995
2022-10-03T10:50:38.134Z,995
2022-10-03T10:52:39.737Z,995
2022-10-03T10:54:41.198Z,994.9
2022-10-03T10:56:42.313Z,994.9
2022-10-03T10:58:43.088Z,995
2022-10-03T11:00:44.033Z,994.9
2022-10-03T11:02:45.552Z,994.9
2022-10-03T11:04:46.595Z,995
2022-10-03T11:06:47.609Z,994.9
2022-10-03T11:08:48.465Z,995
2022-10-03T11:10:49.743Z,995
2022-10-03T11:12:51.270Z,994.9
2022-10-03T11:14:52.754Z,994.9
2022-10-03T11:16:53.894Z,994.8
2022-10-03T11:20:56.867Z,994.9
2022-10-03T11:23:01.054Z,994.8
2022-10-03T11:24:59.676Z,994.9
2022-10-03T11:27:01.445Z,994.8
2022-10-03T11:29:02.721Z,994.8
2022-10-03T11:31:04.071Z,994.8
2022-10-03T11:33:05.818Z,994.7
2022-10-03T11:35:07.030Z,994.8
2022-10-03T11:37:08.676Z,994.8
2022-10-03T11:39:10.450Z,994.7
2022-10-03T11:41:11.849Z,994.7
2022-10-03T11:43:12.738Z,994.7
2022-10-03T11:45:13.789Z,994.8
2022-10-03T11:47:15.259Z,994.7
2022-10-03T11:49:16.962Z,994.7
2022-10-03T11:51:18.215Z,994.8
2022-10-03T11:53:19.453Z,994.8
2022-10-03T11:55:20.447Z,994.8
2022-10-03T11:57:21.752Z,994.8
2022-10-03T12:03:26.267Z,994.7
2022-10-03T12:05:27.767Z,994.8
2022-10-03T12:07:29.051Z,994.7
2022-10-03T12:09:30.768Z,994.7
2022-10-03T12:11:32.443Z,994.6
2022-10-03T12:13:33.745Z,994.6
2022-10-03T12:15:34.968Z,994.6
2022-10-03T12:17:36.025Z,994.5
2022-10-03T12:19:37.761Z,994.6
2022-10-03T12:21:39.388Z,994.6
2022-10-03T12:23:40.654Z,994.6
2022-10-03T12:25:41.604Z,994.6
2022-10-03T12:29:43.874Z,994.6
2022-10-03T12:31:45.181Z,994.4
2022-10-03T12:35:48.087Z,994.5
2022-10-03T12:37:49.401Z,994.4
2022-10-03T12:39:50.403Z,994.4
2022-10-03T12:41:51.275Z,994.4
2022-10-03T12:43:52.521Z,994.4
2022-10-03T12:45:54.164Z,994.4
2022-10-03T12:47:56.498Z,994.4
2022-10-03T12:49:56.879Z,994.4
2022-10-03T12:51:57.891Z,994.4
2022-10-03T12:53:58.887Z,994.3
2022-10-03T12:56:00.264Z,994.4
2022-10-03T12:58:01.591Z,994.3
2022-10-03T13:00:02.457Z,994.3
2022-10-03T13:02:03.714Z,994.3
2022-10-03T13:04:04.958Z,994.3
2022-10-03T13:06:07.321Z,994.3
2022-10-03T13:08:07.023Z,994.2
2022-10-03T13:10:08.338Z,994.1
2022-10-03T13:12:10.026Z,994.2
2022-10-03T13:14:11.798Z,994.1
2022-10-03T13:16:13.374Z,994.2
2022-10-03T13:18:14.342Z,994.2
2022-10-03T13:20:15.612Z,994.3
2022-10-03T13:22:17.105Z,994.3
2022-10-03T13:24:18.330Z,994.3
2022-10-03T13:26:19.795Z,994.2
2022-10-03T13:28:21.676Z,994.3
2022-10-03T13:30:22.541Z,994.3
2022-10-03T13:32:24.374Z,994.3
2022-10-03T13:34:25.605Z,994.2
2022-10-03T13:36:26.940Z,994.3
2022-10-03T13:38:28.465Z,994.3
2022-10-03T13:40:30.065Z,994.2
2022-10-03T13:42:31.048Z,994.1
2022-10-03T13:44:32.274Z,994.1
2022-10-03T13:46:33.989Z,994
2022-10-03T13:48:35.515Z,994.2
2022-10-03T13:50:37.066Z,994.1
2022-10-03T13:52:38.004Z,994.1
2022-10-03T13:54:38.994Z,994.2
2022-10-03T13:56:40.260Z,994.1
2022-10-03T13:58:41.375Z,994.1
2022-10-03T14:00:42.683Z,994.1
2022-10-03T14:02:44.607Z,994.1
2022-10-03T14:06:46.428Z,994.1
2022-10-03T14:08:47.743Z,994.1
2022-10-03T14:10:48.935Z,994.1
2022-10-03T14:12:55.218Z,994.2
2022-10-03T14:14:51.461Z,994.1
2022-10-03T14:16:53.077Z,994.1
2022-10-03T14:18:54.245Z,994
2022-10-03T14:20:55.575Z,994
2022-10-03T14:22:56.604Z,994
2022-10-03T14:24:58.289Z,994.1
2022-10-03T14:26:59.471Z,994.1
2022-10-03T14:29:01.054Z,994
2022-10-03T14:31:07.009Z,994
2022-10-03T14:33:04.353Z,994
2022-10-03T14:35:05.337Z,994
2022-10-03T14:37:06.492Z,993.9
2022-10-03T14:39:07.794Z,994
2022-10-03T14:41:09.179Z,994
2022-10-03T14:43:10.829Z,993.9
2022-10-03T14:45:12.079Z,994
2022-10-03T14:47:13.675Z,993.9
2022-10-03T14:49:31.341Z,993.9
2022-10-03T14:51:16.770Z,994
2022-10-03T14:53:17.674Z,993.9
2022-10-03T14:55:18.732Z,993.9
2022-10-03T14:57:19.903Z,993.9
2022-10-03T14:59:21.426Z,993.9
2022-10-03T15:01:22.324Z,994
2022-10-03T15:03:23.371Z,993.9
2022-10-03T15:05:24.294Z,993.9
2022-10-03T15:07:25.670Z,994
2022-10-03T15:09:27.124Z,993.9
2022-10-03T15:11:27.983Z,994
2022-10-03T15:13:29.664Z,993.9
2022-10-03T15:15:30.999Z,994
2022-10-03T15:17:32.125Z,993.9
2022-10-03T15:19:33.855Z,993.8
2022-10-03T15:21:34.861Z,994.1
2022-10-03T15:25:37.652Z,994.1
2022-10-03T15:27:38.584Z,994
2022-10-03T15:29:39.560Z,994
2022-10-03T15:31:41.192Z,993.9
2022-10-03T15:33:42.546Z,994
2022-10-03T15:35:43.931Z,994
2022-10-03T15:37:47.708Z,994
2022-10-03T15:39:46.438Z,994
2022-10-03T15:41:48.241Z,993.9
2022-10-03T15:43:49.176Z,993.9
2022-10-03T15:47:52.462Z,994
2022-10-03T15:51:55.169Z,993.9
2022-10-03T15:53:56.410Z,994
2022-10-03T15:55:57.849Z,993.9
2022-10-03T15:57:59.523Z,993.9
2022-10-03T16:02:03.062Z,993.9
2022-10-03T16:04:04.376Z,993.9
2022-10-03T16:06:05.961Z,993.9
2022-10-03T16:08:06.947Z,993.9
2022-10-03T16:10:08.658Z,993.9
2022-10-03T16:12:09.958Z,993.9
2022-10-03T16:14:11.437Z,994
2022-10-03T16:16:12.717Z,993.9
2022-10-03T16:18:13.963Z,993.9
2022-10-03T16:20:15.043Z,993.8
2022-10-03T16:22:16.534Z,993.7
2022-10-03T16:24:17.990Z,993.8
2022-10-03T16:26:18.884Z,993.8
2022-10-03T16:28:20.432Z,993.9
2022-10-03T16:30:21.454Z,993.8
2022-10-03T16:31:14.337Z,993.9
2022-10-03T16:33:15.351Z,993.8
2022-10-03T16:35:16.243Z,993.8
2022-10-03T16:37:17.558Z,993.7
2022-10-03T16:39:19.082Z,993.8
2022-10-03T16:41:20.753Z,993.8
2022-10-03T16:43:21.835Z,993.8
2022-10-03T16:45:23.313Z,993.7
2022-10-03T16:47:24.934Z,993.8
2022-10-03T16:49:26.697Z,993.9
2022-10-03T16:51:28.209Z,993.9
2022-10-03T16:53:29.756Z,993.9
2022-10-03T16:55:30.959Z,993.9
2022-10-03T16:57:31.969Z,994
2022-10-03T16:59:33.164Z,994
2022-10-03T17:01:35.526Z,993.9
2022-10-03T17:03:36.008Z,993.8
2022-10-03T17:05:37.809Z,993.9
2022-10-03T17:07:38.760Z,993.8
2022-10-03T17:09:40.635Z,993.9
2022-10-03T17:11:42.786Z,993.8
2022-10-03T17:13:43.825Z,993.8
2022-10-03T17:15:44.861Z,993.8
2022-10-03T17:17:46.609Z,993.8
2022-10-03T17:19:48.091Z,993.9
2022-10-03T17:21:49.395Z,993.9
2022-10-03T17:23:50.405Z,994
2022-10-03T17:27:53.199Z,993.8
2022-10-03T17:29:54.253Z,993.8
2022-10-03T17:31:55.364Z,993.8
2022-10-03T17:33:56.386Z,993.8
2022-10-03T17:35:58.324Z,993.8
2022-10-03T17:38:06.637Z,993.8
2022-10-03T17:40:01.481Z,993.8
2022-10-03T17:42:02.927Z,993.7
2022-10-03T17:44:04.635Z,993.7
2022-10-03T17:46:06.019Z,993.8
2022-10-03T17:48:07.235Z,993.9
2022-10-03T17:50:08.351Z,993.8
2022-10-03T17:54:10.884Z,993.8
2022-10-03T17:56:12.411Z,993.9
2022-10-03T18:00:15.434Z,993.8
2022-10-03T18:02:16.633Z,993.8
2022-10-03T18:04:17.779Z,993.8
2022-10-03T18:06:18.912Z,993.8
2022-10-03T18:08:20.181Z,993.8
2022-10-03T18:10:21.230Z,993.7
2022-10-03T18:12:23.154Z,993.7
2022-10-03T18:14:24.363Z,993.7
2022-10-03T18:16:26.307Z,993.8
2022-10-03T18:18:28.110Z,993.7
2022-10-03T18:20:29.414Z,993.7
2022-10-03T18:22:30.642Z,993.8
2022-10-03T18:24:32.293Z,993.8
2022-10-03T18:26:33.827Z,993.8
2022-10-03T18:28:35.558Z,993.7
2022-10-03T18:30:37.120Z,993.9
2022-10-03T18:32:38.266Z,993.7
2022-10-03T18:34:39.663Z,993.9
2022-10-03T18:38:43.070Z,993.8
2022-10-03T18:40:44.633Z,993.7
2022-10-03T18:42:45.823Z,993.7
2022-10-03T18:44:47.524Z,993.8
2022-10-03T18:46:48.713Z,993.8
2022-10-03T18:49:03.212Z,993.8
2022-10-03T18:50:51.899Z,993.7
2022-10-03T18:52:53.211Z,993.7
2022-10-03T18:54:55.104Z,993.6
2022-10-03T18:58:57.589Z,993.7
2022-10-03T19:00:59.000Z,993.7
2022-10-03T19:03:00.467Z,993.7
2022-10-03T19:05:01.833Z,993.7
2022-10-03T19:07:03.117Z,993.8
2022-10-03T19:09:04.240Z,993.8
2022-10-03T19:11:05.541Z,993.8
2022-10-03T19:13:07.053Z,993.8
2022-10-03T19:15:08.626Z,993.8
2022-10-03T19:17:10.252Z,993.8
2022-10-03T19:19:12.189Z,993.8
2022-10-03T19:21:13.567Z,993.8
2022-10-03T19:23:15.367Z,993.8
2022-10-03T19:25:16.902Z,993.8
2022-10-03T19:27:17.950Z,993.8
2022-10-03T19:29:19.470Z,993.9
2022-10-03T19:31:20.839Z,993.8
2022-10-03T19:33:22.168Z,993.8
2022-10-03T19:37:25.449Z,993.7
2022-10-03T19:39:27.311Z,993.9
2022-10-03T19:41:29.035Z,993.8
2022-10-03T19:43:30.023Z,993.8
2022-10-03T19:45:31.368Z,993.8
2022-10-03T19:47:32.949Z,993.9
2022-10-03T19:49:34.426Z,993.8
2022-10-03T19:51:35.664Z,993.9
2022-10-03T19:53:37.449Z,993.8
2022-10-03T19:55:39.189Z,993.8
2022-10-03T19:57:40.765Z,993.9
2022-10-03T19:59:42.175Z,993.9
2022-10-03T20:01:43.887Z,993.9
2022-10-03T20:03:45.525Z,993.8
2022-10-03T20:05:46.585Z,993.8
2022-10-03T20:07:47.746Z,993.8
2022-10-03T20:09:49.423Z,993.8
2022-10-03T20:11:50.657Z,993.8
2022-10-03T20:13:52.289Z,993.8
2022-10-03T20:17:54.693Z,993.7
2022-10-03T20:19:56.102Z,993.7
2022-10-03T20:21:57.471Z,993.7
2022-10-03T20:23:59.188Z,993.8
2022-10-03T20:26:00.803Z,993.7
2022-10-03T20:28:02.530Z,993.7
2022-10-03T20:30:03.960Z,993.7
2022-10-03T20:32:05.685Z,993.7
2022-10-03T20:34:07.406Z,993.6
2022-10-03T20:36:08.391Z,993.7
2022-10-03T20:38:10.212Z,993.7
2022-10-03T20:40:11.691Z,993.6
2022-10-03T20:42:12.860Z,993.6
2022-10-03T20:44:14.478Z,993.6
2022-10-03T20:46:15.996Z,993.6
2022-10-03T20:48:17.398Z,993.6
2022-10-03T20:50:18.858Z,993.6
2022-10-03T20:52:20.531Z,993.6
2022-10-03T20:54:21.666Z,993.6
2022-10-03T20:56:22.923Z,993.6
2022-10-03T20:58:23.992Z,993.5
2022-10-03T21:02:27.673Z,993.6
2022-10-03T21:06:30.219Z,993.6
2022-10-03T21:08:31.713Z,993.5
2022-10-03T21:10:33.224Z,993.4
2022-10-03T21:12:35.149Z,993.5
2022-10-03T21:14:36.971Z,993.5
2022-10-03T21:16:38.842Z,993.4
2022-10-03T21:18:40.589Z,993.4
2022-10-03T21:20:41.592Z,993.4
2022-10-03T21:22:43.555Z,993.4
2022-10-03T21:24:44.862Z,993.3
2022-10-03T21:26:46.788Z,993.4
2022-10-03T21:28:48.729Z,993.4
2022-10-03T21:30:50.732Z,993.3
2022-10-03T21:32:52.379Z,993.4
2022-10-03T21:34:54.341Z,993.4
2022-10-03T21:36:56.315Z,993.3
2022-10-03T21:38:57.650Z,993.2
2022-10-03T21:40:59.226Z,993.3
2022-10-03T21:43:00.678Z,993.3
2022-10-03T21:45:01.892Z,993.2
2022-10-03T21:49:05.379Z,993.2
2022-10-03T21:51:07.238Z,993.2
2022-10-03T21:53:09.214Z,993.2
2022-10-03T21:55:10.730Z,993.2
2022-10-03T21:57:11.758Z,993.1
2022-10-03T21:59:13.301Z,993.1
2022-10-03T22:01:14.758Z,993.2
2022-10-03T22:03:15.858Z,993.2
2022-10-03T22:05:17.220Z,993.2
2022-10-03T22:07:18.490Z,993.2
2022-10-03T22:09:19.814Z,993.2
2022-10-03T22:11:21.777Z,993
2022-10-03T22:13:23.586Z,993.1
2022-10-03T22:15:24.956Z,993.1
2022-10-03T22:17:26.120Z,993.1
2022-10-03T22:19:28.077Z,993.2
2022-10-03T22:21:29.509Z,993.1
2022-10-03T22:23:30.545Z,993.1
2022-10-03T22:25:31.773Z,993.1
2022-10-03T22:27:33.151Z,993.2
2022-10-03T22:29:34.383Z,993
2022-10-03T22:31:35.631Z,993
2022-10-03T22:33:37.446Z,993.1
2022-10-03T22:35:39.043Z,992.9
2022-10-03T22:37:40.936Z,992.9
2022-10-03T22:39:42.028Z,992.9
2022-10-03T22:41:44.238Z,992.8
2022-10-03T22:43:45.774Z,992.8
2022-10-03T22:45:47.763Z,992.9
2022-10-03T22:47:49.677Z,992.8
2022-10-03T22:49:51.094Z,992.9
2022-10-03T22:51:52.160Z,992.8
2022-10-03T22:53:53.948Z,992.8
2022-10-03T22:55:55.473Z,992.8
2022-10-03T22:57:56.628Z,992.9
2022-10-03T22:59:57.828Z,992.9
2022-10-03T23:01:59.663Z,992.9
2022-10-03T23:04:01.837Z,992.8
2022-10-03T23:06:01.794Z,992.9
2022-10-03T23:10:05.713Z,992.8
2022-10-03T23:12:07.285Z,992.8
2022-10-03T23:14:09.183Z,992.8
2022-10-03T23:16:10.893Z,992.8
2022-10-03T23:16:54.709Z,992.8
2022-10-03T23:18:56.454Z,992.8
2022-10-03T23:20:57.824Z,992.9
2022-10-03T23:22:59.178Z,992.8
2022-10-03T23:25:00.916Z,992.7
2022-10-03T23:27:02.332Z,992.8
2022-10-03T23:29:04.036Z,992.7
2022-10-03T23:31:05.987Z,992.7
2022-10-03T23:33:07.691Z,992.7
2022-10-03T23:35:09.262Z,992.7
2022-10-03T23:37:11.010Z,992.7
2022-10-03T23:39:12.695Z,992.6
2022-10-03T23:41:13.818Z,992.6
2022-10-03T23:43:15.085Z,992.7
2022-10-03T23:45:17.056Z,992.5
2022-10-03T23:47:18.082Z,992.6
2022-10-03T23:49:19.517Z,992.6
2022-10-03T23:51:21.065Z,992.5
2022-10-03T23:53:22.208Z,992.5
2022-10-03T23:55:23.223Z,992.6
2022-10-03T23:57:24.724Z,992.6
2022-10-03T23:59:26.246Z,992.5
